createdAt,value
2019-06-15T00:00:29.823Z,89.78
2019-06-15T00:02:55.973Z,89.94
2019-06-15T00:05:21.924Z,90.24
2019-06-15T00:07:47.923Z,90.36
2019-06-15T00:10:14.335Z,90.55
2019-06-15T00:12:40.470Z,90.76
2019-06-15T00:15:06.845Z,91.04
2019-06-15T00:17:32.869Z,91.10
2019-06-15T00:19:58.910Z,91.34
2019-06-15T00:22:25.390Z,91.39
2019-06-15T00:24:51.268Z,91.73
2019-06-15T00:27:17.131Z,92.12
2019-06-15T00:29:43.011Z,92.36
2019-06-15T00:32:09.216Z,92.32
2019-06-15T00:34:35.108Z,92.56
2019-06-15T00:37:00.978Z,93.08
2019-06-15T00:39:26.879Z,93.17
2019-06-15T00:41:52.874Z,93.13
2019-06-15T00:44:18.741Z,93.32
2019-06-15T00:46:44.622Z,93.42
2019-06-15T00:49:11.408Z,93.43
2019-06-15T00:51:38.353Z,93.51
2019-06-15T00:54:04.210Z,93.83
2019-06-15T00:56:30.100Z,93.72
2019-06-15T00:58:55.963Z,93.81
2019-06-15T01:01:22.325Z,94.02
2019-06-15T01:03:48.954Z,94.28
2019-06-15T01:06:14.820Z,94.40
2019-06-15T01:08:41.625Z,94.75
2019-06-15T01:11:08.255Z,94.94
2019-06-15T01:13:34.489Z,95.04
2019-06-15T01:16:00.626Z,95.13
2019-06-15T01:18:27.214Z,95.20
2019-06-15T01:20:53.965Z,95.50
2019-06-15T01:23:20.541Z,95.50
2019-06-15T01:25:47.612Z,95.41
2019-06-15T01:28:14.253Z,95.68
2019-06-15T01:30:40.463Z,95.55
2019-06-15T01:33:06.328Z,95.42
2019-06-15T01:35:32.304Z,95.34
2019-06-15T01:37:58.165Z,95.15
2019-06-15T01:40:24.055Z,95.00
2019-06-15T01:42:49.919Z,95.18
2019-06-15T01:45:19.612Z,95.05
2019-06-15T01:47:45.636Z,95.24
2019-06-15T01:50:11.622Z,95.15
2019-06-15T01:52:37.680Z,95.19
2019-06-15T01:55:17.460Z,95.20
2019-06-15T01:57:32.818Z,95.33
2019-06-15T01:59:58.707Z,95.29
2019-06-15T02:02:24.566Z,95.29
2019-06-15T02:04:50.450Z,95.26
2019-06-15T02:07:16.305Z,95.13
2019-06-15T02:09:42.217Z,95.03
2019-06-15T02:12:08.187Z,95.10
2019-06-15T02:14:34.089Z,95.31
2019-06-15T02:17:00.044Z,95.23
2019-06-15T02:19:25.913Z,95.18
2019-06-15T02:21:51.783Z,94.94
2019-06-15T02:24:17.647Z,94.90
2019-06-15T02:26:43.524Z,95.10
2019-06-15T02:29:09.387Z,95.17
2019-06-15T02:31:35.282Z,95.03
2019-06-15T02:34:01.146Z,95.11
2019-06-15T02:36:27.028Z,95.06
2019-06-15T02:38:52.885Z,94.90
2019-06-15T02:41:18.764Z,94.95
2019-06-15T02:43:44.623Z,94.79
2019-06-15T02:46:10.513Z,94.74
2019-06-15T02:48:36.395Z,94.80
2019-06-15T02:51:02.780Z,94.67
2019-06-15T02:53:28.709Z,94.89
2019-06-15T02:55:54.592Z,94.60
2019-06-15T02:58:20.443Z,94.60
2019-06-15T03:00:59.061Z,94.40
2019-06-15T03:03:24.935Z,94.48
2019-06-15T03:05:50.899Z,94.28
2019-06-15T03:08:16.848Z,94.27
2019-06-15T03:10:42.841Z,94.31
2019-06-15T03:13:08.708Z,94.20
2019-06-15T03:15:34.582Z,94.02
2019-06-15T03:18:00.438Z,93.74
2019-06-15T03:20:26.420Z,93.72
2019-06-15T03:22:52.275Z,93.73
2019-06-15T03:25:18.256Z,93.64
2019-06-15T03:27:44.112Z,93.44
2019-06-15T03:30:10.224Z,93.42
2019-06-15T03:32:36.059Z,93.33
2019-06-15T03:35:04.741Z,93.36
2019-06-15T03:37:30.599Z,93.57
2019-06-15T03:39:56.457Z,93.63
2019-06-15T03:42:22.337Z,93.41
2019-06-15T03:44:48.200Z,93.39
2019-06-15T03:47:14.107Z,93.50
2019-06-15T03:49:39.960Z,93.65
2019-06-15T03:52:05.850Z,93.52
2019-06-15T03:54:31.706Z,93.85
2019-06-15T03:56:57.593Z,94.02
2019-06-15T03:59:23.448Z,94.28
2019-06-15T04:01:49.532Z,94.18
2019-06-15T04:04:15.390Z,94.18
2019-06-15T04:06:41.270Z,94.31
2019-06-15T04:09:07.420Z,94.39
2019-06-15T04:11:33.326Z,94.14
2019-06-15T04:13:59.184Z,94.40
2019-06-15T04:16:25.064Z,94.23
2019-06-15T04:18:50.925Z,94.02
2019-06-15T04:21:16.820Z,94.12
2019-06-15T04:23:42.685Z,93.89
2019-06-15T04:26:08.573Z,93.96
2019-06-15T04:28:34.438Z,93.91
2019-06-15T04:31:00.321Z,93.88
2019-06-15T04:33:26.181Z,94.04
2019-06-15T04:35:52.062Z,94.76
2019-06-15T04:38:17.920Z,95.83
2019-06-15T04:40:43.771Z,95.89
2019-06-15T04:43:09.653Z,96.32
2019-06-15T04:45:35.508Z,96.44
2019-06-15T04:48:01.439Z,96.37
2019-06-15T04:50:27.273Z,96.83
2019-06-15T04:52:53.159Z,96.77
2019-06-15T04:55:19.154Z,96.79
2019-06-15T04:57:45.166Z,96.62
2019-06-15T05:00:11.229Z,96.55
2019-06-15T05:02:38.111Z,96.41
2019-06-15T05:05:05.278Z,96.71
2019-06-15T05:07:31.153Z,96.46
2019-06-15T05:09:57.011Z,96.75
2019-06-15T05:12:22.897Z,96.68
2019-06-15T05:14:48.768Z,96.66
2019-06-15T05:17:14.650Z,96.72
2019-06-15T05:19:40.500Z,96.65
2019-06-15T05:22:06.510Z,96.83
2019-06-15T05:24:32.368Z,97.21
2019-06-15T05:27:06.442Z,97.40
2019-06-15T05:29:26.000Z,97.28
2019-06-15T05:31:51.883Z,97.66
2019-06-15T05:34:17.744Z,97.72
2019-06-15T05:36:43.641Z,97.96
2019-06-15T05:39:09.502Z,98.13
2019-06-15T05:41:35.484Z,98.28
2019-06-15T05:44:01.744Z,98.42
2019-06-15T05:46:27.625Z,98.74
2019-06-15T05:48:53.509Z,98.66
2019-06-15T05:51:19.388Z,98.68
2019-06-15T05:53:45.245Z,98.52
2019-06-15T05:56:11.128Z,98.24
2019-06-15T05:58:37.012Z,98.05
2019-06-15T06:01:03.069Z,97.93
2019-06-15T06:03:28.952Z,98.00
2019-06-15T06:05:54.810Z,98.02
2019-06-15T06:08:20.692Z,98.10
2019-06-15T06:10:46.545Z,97.98
2019-06-15T06:13:12.430Z,97.81
2019-06-15T06:15:38.285Z,97.84
2019-06-15T06:18:04.242Z,97.84
2019-06-15T06:20:30.126Z,97.81
2019-06-15T06:22:55.979Z,98.25
2019-06-15T06:25:21.877Z,98.84
2019-06-15T06:27:47.747Z,99.18
2019-06-15T06:30:14.634Z,99.27
2019-06-15T06:32:40.505Z,99.35
2019-06-15T06:35:07.174Z,98.99
2019-06-15T06:37:33.036Z,99.09
2019-06-15T06:39:58.927Z,99.28
2019-06-15T06:42:24.773Z,99.83
2019-06-15T06:44:50.664Z,99.79
2019-06-15T06:47:16.512Z,99.85
2019-06-15T06:49:42.437Z,99.82
2019-06-15T06:52:08.288Z,99.86
2019-06-15T06:54:34.154Z,100.00
2019-06-15T06:57:00.055Z,100.00
2019-06-15T06:59:26.097Z,100.00
2019-06-15T07:01:51.998Z,100.00
2019-06-15T07:04:17.948Z,100.00
2019-06-15T07:06:43.831Z,100.00
2019-06-15T07:09:09.721Z,100.00
2019-06-15T07:11:35.596Z,100.00
2019-06-15T07:14:01.457Z,100.00
2019-06-15T07:16:27.339Z,100.00
2019-06-15T07:18:53.198Z,100.00
2019-06-15T07:21:19.087Z,99.64
2019-06-15T07:23:44.951Z,99.19
2019-06-15T07:26:10.838Z,98.76
2019-06-15T07:28:36.696Z,98.31
2019-06-15T07:31:02.687Z,98.01
2019-06-15T07:33:28.553Z,97.58
2019-06-15T07:35:54.445Z,97.23
2019-06-15T07:38:20.349Z,96.90
2019-06-15T07:40:46.269Z,96.73
2019-06-15T07:43:12.155Z,96.27
2019-06-15T07:45:38.226Z,96.09
2019-06-15T07:48:04.116Z,96.07
2019-06-15T07:50:29.979Z,96.37
2019-06-15T07:52:56.369Z,96.75
2019-06-15T07:55:22.209Z,97.17
2019-06-15T07:57:48.099Z,97.68
2019-06-15T08:00:14.186Z,97.55
2019-06-15T08:02:40.045Z,98.15
2019-06-15T08:05:06.601Z,98.00
2019-06-15T08:07:32.485Z,97.80
2019-06-15T08:09:58.363Z,97.75
2019-06-15T08:12:24.249Z,97.23
2019-06-15T08:14:50.096Z,96.13
2019-06-15T08:17:16.304Z,95.02
2019-06-15T08:19:42.255Z,94.41
2019-06-15T08:22:08.146Z,93.29
2019-06-15T08:24:34.013Z,92.63
2019-06-15T08:26:59.897Z,92.49
2019-06-15T08:29:25.862Z,92.25
2019-06-15T08:31:51.728Z,91.67
2019-06-15T08:34:17.618Z,90.84
2019-06-15T08:36:43.487Z,90.67
2019-06-15T08:39:09.365Z,88.68
2019-06-15T08:41:35.229Z,88.09
2019-06-15T08:44:01.117Z,86.69
2019-06-15T08:46:26.973Z,86.18
2019-06-15T08:48:52.858Z,85.84
2019-06-15T08:51:18.724Z,85.51
2019-06-15T08:53:44.605Z,85.62
2019-06-15T08:56:10.465Z,86.02
2019-06-15T08:58:36.356Z,87.13
2019-06-15T09:01:02.212Z,88.42
2019-06-15T09:03:28.099Z,89.33
2019-06-15T09:05:53.973Z,90.44
2019-06-15T09:08:19.891Z,89.23
2019-06-15T09:10:45.766Z,89.04
2019-06-15T09:13:11.648Z,88.88
2019-06-15T09:15:51.969Z,88.43
2019-06-15T09:18:18.115Z,87.36
2019-06-15T09:20:44.034Z,89.09
2019-06-15T09:23:10.017Z,88.46
2019-06-15T09:25:36.859Z,90.27
2019-06-15T09:28:02.881Z,90.60
2019-06-15T09:30:28.772Z,90.59
2019-06-15T09:32:54.642Z,91.04
2019-06-15T09:35:20.523Z,91.67
2019-06-15T09:37:46.389Z,92.25
2019-06-15T09:40:12.373Z,92.49
2019-06-15T09:42:38.240Z,92.44
2019-06-15T09:45:05.833Z,92.80
2019-06-15T09:47:31.694Z,93.46
2019-06-15T09:49:57.583Z,93.65
2019-06-15T09:52:23.449Z,94.90
2019-06-15T09:54:49.337Z,94.99
2019-06-15T09:57:15.200Z,95.25
2019-06-15T09:59:41.085Z,95.58
2019-06-15T10:02:06.941Z,95.70
2019-06-15T10:04:33.744Z,96.03
2019-06-15T10:06:59.587Z,96.37
2019-06-15T10:09:25.660Z,96.42
2019-06-15T10:11:51.664Z,95.79
2019-06-15T10:14:17.538Z,94.59
2019-06-15T10:16:43.419Z,94.18
2019-06-15T10:19:09.288Z,93.47
2019-06-15T10:21:35.431Z,93.11
2019-06-15T10:24:01.303Z,93.20
2019-06-15T10:26:27.189Z,92.94
2019-06-15T10:28:53.457Z,92.52
2019-06-15T10:31:19.342Z,92.64
2019-06-15T10:33:45.211Z,92.50
2019-06-15T10:36:11.096Z,92.12
2019-06-15T10:38:36.953Z,91.30
2019-06-15T10:41:02.840Z,90.33
2019-06-15T10:43:28.702Z,89.73
2019-06-15T10:45:54.590Z,90.17
2019-06-15T10:48:20.511Z,91.29
2019-06-15T10:50:46.448Z,91.92
2019-06-15T10:53:12.313Z,91.83
2019-06-15T10:55:38.198Z,91.75
2019-06-15T10:58:04.061Z,91.98
2019-06-15T11:00:30.046Z,91.84
2019-06-15T11:02:55.907Z,91.92
2019-06-15T11:05:21.859Z,91.41
2019-06-15T11:07:47.853Z,91.46
2019-06-15T11:10:14.250Z,90.52
2019-06-15T11:12:46.215Z,89.63
2019-06-15T11:15:08.571Z,88.80
2019-06-15T11:17:34.471Z,88.08
2019-06-15T11:20:00.444Z,87.66
2019-06-15T11:22:26.324Z,88.37
2019-06-15T11:24:52.214Z,88.55
2019-06-15T11:27:18.271Z,88.55
2019-06-15T11:29:44.127Z,87.70
2019-06-15T11:32:10.052Z,87.20
2019-06-15T11:34:35.942Z,86.59
2019-06-15T11:37:01.851Z,86.50
2019-06-15T11:39:27.805Z,86.28
2019-06-15T11:41:53.704Z,86.68
2019-06-15T11:44:19.609Z,87.06
2019-06-15T11:46:45.582Z,87.19
2019-06-15T11:49:11.456Z,87.19
2019-06-15T11:51:37.315Z,86.90
2019-06-15T11:54:03.197Z,87.05
2019-06-15T11:56:29.051Z,86.35
2019-06-15T11:58:54.937Z,86.35
2019-06-15T12:01:20.794Z,86.92
2019-06-15T12:03:46.680Z,87.45
2019-06-15T12:06:12.935Z,87.85
2019-06-15T12:08:38.852Z,87.98
2019-06-15T12:11:04.717Z,88.61
2019-06-15T12:13:30.592Z,88.59
2019-06-15T12:15:56.456Z,88.86
2019-06-15T12:18:22.735Z,89.10
2019-06-15T12:20:48.689Z,89.66
2019-06-15T12:23:14.572Z,89.84
2019-06-15T12:25:40.419Z,89.83
2019-06-15T12:28:06.282Z,90.19
2019-06-15T12:30:46.661Z,90.16
2019-06-15T12:33:06.942Z,90.45
2019-06-15T12:35:33.043Z,90.77
2019-06-15T12:37:58.913Z,91.35
2019-06-15T12:40:24.803Z,92.44
2019-06-15T12:42:50.666Z,92.84
2019-06-15T12:45:16.651Z,93.14
2019-06-15T12:47:42.508Z,92.99
2019-06-15T12:50:08.390Z,93.50
2019-06-15T12:52:34.248Z,94.02
2019-06-15T12:55:00.139Z,94.07
2019-06-15T12:57:26.008Z,94.39
2019-06-15T12:59:51.888Z,94.62
2019-06-15T13:02:17.775Z,94.91
2019-06-15T13:04:43.657Z,95.14
2019-06-15T13:07:09.512Z,94.95
2019-06-15T13:09:35.422Z,95.00
2019-06-15T13:12:01.272Z,95.25
2019-06-15T13:14:27.155Z,94.76
2019-06-15T13:16:53.014Z,94.60
2019-06-15T13:19:18.874Z,95.33
2019-06-15T13:21:44.756Z,94.41
2019-06-15T13:24:10.610Z,93.32
2019-06-15T13:26:36.516Z,93.55
2019-06-15T13:29:02.483Z,93.09
2019-06-15T13:31:28.370Z,89.83
2019-06-15T13:33:54.224Z,90.53
2019-06-15T13:36:20.128Z,88.42
2019-06-15T13:38:45.960Z,88.41
2019-06-15T13:41:11.840Z,87.93
2019-06-15T13:43:37.697Z,89.12
2019-06-15T13:46:03.582Z,90.38
2019-06-15T13:48:29.457Z,90.75
2019-06-15T13:50:55.340Z,91.82
2019-06-15T13:53:21.199Z,92.14
2019-06-15T13:55:47.150Z,92.01
2019-06-15T13:58:13.037Z,92.32
2019-06-15T14:00:38.902Z,92.01
2019-06-15T14:03:04.787Z,92.58
2019-06-15T14:05:30.648Z,93.07
2019-06-15T14:07:56.528Z,92.87
2019-06-15T14:10:22.420Z,93.06
2019-06-15T14:12:48.335Z,93.46
2019-06-15T14:15:15.294Z,93.76
2019-06-15T14:17:41.185Z,93.88
2019-06-15T14:20:07.145Z,94.49
2019-06-15T14:22:33.022Z,94.08
2019-06-15T14:24:58.884Z,94.43
2019-06-15T14:27:24.773Z,94.93
2019-06-15T14:29:50.627Z,95.34
2019-06-15T14:32:16.519Z,95.43
2019-06-15T14:34:42.374Z,95.41
2019-06-15T14:37:08.254Z,95.61
2019-06-15T14:39:34.104Z,95.69
2019-06-15T14:42:00.061Z,95.78
2019-06-15T14:44:26.733Z,95.80
2019-06-15T14:46:52.591Z,95.71
2019-06-15T14:49:18.476Z,95.31
2019-06-15T14:51:44.365Z,95.79
2019-06-15T14:54:10.381Z,95.38
2019-06-15T14:56:36.259Z,94.57
2019-06-15T14:59:02.349Z,92.65
2019-06-15T15:01:28.207Z,89.74
2019-06-15T15:03:54.112Z,89.99
2019-06-15T15:06:20.015Z,90.16
2019-06-15T15:08:47.121Z,90.35
2019-06-15T15:11:13.114Z,89.94
2019-06-15T15:13:39.001Z,89.82
2019-06-15T15:16:07.079Z,89.35
2019-06-15T15:18:32.748Z,89.38
2019-06-15T15:20:58.660Z,90.15
2019-06-15T15:23:24.716Z,90.19
2019-06-15T15:25:50.828Z,90.75
2019-06-15T15:28:16.834Z,90.34
2019-06-15T15:30:42.902Z,90.19
2019-06-15T15:33:08.948Z,90.41
2019-06-15T15:35:37.177Z,90.46
2019-06-15T15:38:03.107Z,88.89
2019-06-15T15:40:29.058Z,85.99
2019-06-15T15:42:56.237Z,84.05
2019-06-15T15:45:22.287Z,84.24
2019-06-15T15:47:48.248Z,84.68
2019-06-15T15:50:17.494Z,84.59
2019-06-15T15:52:42.079Z,84.23
2019-06-15T15:55:08.122Z,84.37
2019-06-15T15:57:36.295Z,83.36
2019-06-15T16:00:07.358Z,84.54
2019-06-15T16:02:47.403Z,84.50
2019-06-15T16:05:01.264Z,84.11
2019-06-15T16:07:28.028Z,83.73
2019-06-15T16:09:54.021Z,83.45
2019-06-15T16:12:19.884Z,82.83
2019-06-15T16:14:45.771Z,82.47
2019-06-15T16:17:11.620Z,80.26
2019-06-15T16:19:37.499Z,80.73
2019-06-15T16:22:03.362Z,80.36
2019-06-15T16:24:29.253Z,80.59
2019-06-15T16:26:56.666Z,80.39
2019-06-15T16:29:22.623Z,81.62
2019-06-15T16:31:48.503Z,81.20
2019-06-15T16:34:16.084Z,81.35
2019-06-15T16:36:42.136Z,81.11
2019-06-15T16:39:08.001Z,80.56
2019-06-15T16:41:36.244Z,81.81
2019-06-15T16:44:01.644Z,81.39
2019-06-15T16:46:27.524Z,81.93
2019-06-15T16:48:55.850Z,81.47
2019-06-15T16:51:21.189Z,81.45
2019-06-15T16:53:47.430Z,81.39
2019-06-15T16:56:13.430Z,81.42
2019-06-15T16:58:39.288Z,81.54
2019-06-15T17:01:06.558Z,81.01
2019-06-15T17:03:32.836Z,80.38
2019-06-15T17:05:58.719Z,80.29
2019-06-15T17:08:24.581Z,79.54
2019-06-15T17:10:50.492Z,78.68
2019-06-15T17:13:16.349Z,78.96
2019-06-15T17:15:42.234Z,78.10
2019-06-15T17:18:08.370Z,77.94
2019-06-15T17:20:48.973Z,78.36
2019-06-15T17:23:16.399Z,78.36
2019-06-15T17:25:42.410Z,78.05
2019-06-15T17:28:08.302Z,79.37
2019-06-15T17:30:36.868Z,79.47
2019-06-15T17:33:04.885Z,79.54
2019-06-15T17:35:29.708Z,79.72
2019-06-15T17:37:56.423Z,80.73
2019-06-15T17:40:22.451Z,80.62
2019-06-15T17:42:48.482Z,80.87
2019-06-15T17:45:16.174Z,81.05
2019-06-15T17:47:42.197Z,81.57
2019-06-15T17:50:08.257Z,81.81
2019-06-15T17:52:35.985Z,81.91
2019-06-15T17:55:07.186Z,81.62
2019-06-15T17:57:35.900Z,82.45
2019-06-15T18:00:01.211Z,82.90
2019-06-15T18:02:27.116Z,84.22
2019-06-15T18:04:53.009Z,85.68
2019-06-15T18:07:18.908Z,86.96
2019-06-15T18:09:46.628Z,88.34
2019-06-15T18:12:12.590Z,89.11
2019-06-15T18:14:38.443Z,89.89
2019-06-15T18:17:07.089Z,90.79
2019-06-15T18:19:33.077Z,91.18
2019-06-15T18:21:59.307Z,92.03
2019-06-15T18:24:26.574Z,92.26
2019-06-15T18:26:52.577Z,92.62
2019-06-15T18:29:18.465Z,92.92
2019-06-15T18:31:44.340Z,93.57
2019-06-15T18:34:13.261Z,93.83
2019-06-15T18:36:37.984Z,93.88
2019-06-15T18:39:05.676Z,94.50
2019-06-15T18:41:31.541Z,95.08
2019-06-15T18:43:57.419Z,95.58
2019-06-15T18:46:23.377Z,96.30
2019-06-15T18:48:49.276Z,96.35
2019-06-15T18:51:16.523Z,96.88
2019-06-15T18:53:42.752Z,96.77
2019-06-15T18:56:08.612Z,96.50
2019-06-15T18:58:36.995Z,96.62
2019-06-15T19:01:02.275Z,96.74
2019-06-15T19:03:28.159Z,96.83
2019-06-15T19:05:56.690Z,96.55
2019-06-15T19:08:21.807Z,96.50
2019-06-15T19:10:47.691Z,96.50
2019-06-15T19:13:16.087Z,96.76
2019-06-15T19:15:41.342Z,96.63
2019-06-15T19:18:07.771Z,97.18
2019-06-15T19:20:33.688Z,97.15
2019-06-15T19:22:59.549Z,96.98
2019-06-15T19:25:27.032Z,96.63
2019-06-15T19:27:52.985Z,96.58
2019-06-15T19:30:19.081Z,96.46
2019-06-15T19:32:46.350Z,95.77
2019-06-15T19:35:12.351Z,95.46
2019-06-15T19:37:38.222Z,94.97
2019-06-15T19:40:07.319Z,95.11
2019-06-15T19:42:36.508Z,95.20
2019-06-15T19:45:10.125Z,94.71
2019-06-15T19:47:34.288Z,94.94
2019-06-15T19:50:00.175Z,94.49
2019-06-15T19:52:26.395Z,94.51
2019-06-15T19:54:52.251Z,94.93
2019-06-15T19:57:18.137Z,94.67
2019-06-15T19:59:44.003Z,94.48
2019-06-15T20:02:10.870Z,94.37
2019-06-15T20:04:36.864Z,94.09
2019-06-15T20:07:02.856Z,94.48
2019-06-15T20:09:28.741Z,93.78
2019-06-15T20:11:56.032Z,93.68
2019-06-15T20:14:22.111Z,93.64
2019-06-15T20:16:47.991Z,93.67
2019-06-15T20:19:13.856Z,93.83
2019-06-15T20:21:39.741Z,93.99
2019-06-15T20:24:06.245Z,93.44
2019-06-15T20:26:32.298Z,93.59
2019-06-15T20:28:58.159Z,93.21
2019-06-15T20:31:24.044Z,93.48
2019-06-15T20:33:52.244Z,93.25
2019-06-15T20:36:17.705Z,93.36
2019-06-15T20:38:43.569Z,93.12
2019-06-15T20:41:09.458Z,93.18
2019-06-15T20:43:36.590Z,92.56
2019-06-15T20:46:02.811Z,92.49
2019-06-15T20:48:28.773Z,92.13
2019-06-15T20:50:56.762Z,92.04
2019-06-15T20:53:22.425Z,92.19
2019-06-15T20:55:48.279Z,91.99
2019-06-15T20:58:16.709Z,91.89
2019-06-15T21:00:41.924Z,91.94
2019-06-15T21:03:07.894Z,91.89
2019-06-15T21:05:38.935Z,91.64
2019-06-15T21:08:01.644Z,91.58
2019-06-15T21:10:27.530Z,91.65
2019-06-15T21:12:53.433Z,91.43
2019-06-15T21:15:23.084Z,91.22
2019-06-15T21:17:48.969Z,91.12
2019-06-15T21:20:16.237Z,91.62
2019-06-15T21:22:42.219Z,91.48
2019-06-15T21:25:08.578Z,91.75
2019-06-15T21:27:36.686Z,91.74
2019-06-15T21:30:07.096Z,91.67
2019-06-15T21:32:33.007Z,91.58
2019-06-15T21:34:58.849Z,91.54
2019-06-15T21:37:26.024Z,90.93
2019-06-15T21:39:51.885Z,90.71
2019-06-15T21:42:17.775Z,90.58
2019-06-15T21:44:43.631Z,90.56
2019-06-15T21:47:09.524Z,90.63
2019-06-15T21:49:35.836Z,90.76
2019-06-15T21:52:01.765Z,90.47
2019-06-15T21:54:27.662Z,90.49
2019-06-15T21:56:56.284Z,90.53
2019-06-15T21:59:21.299Z,89.84
2019-06-15T22:01:47.175Z,90.03
2019-06-15T22:04:13.053Z,89.91
2019-06-15T22:06:38.925Z,89.79
2019-06-15T22:09:07.544Z,88.84
2019-06-15T22:11:33.406Z,88.63
2019-06-15T22:13:59.291Z,88.63
2019-06-15T22:16:27.450Z,88.80
2019-06-15T22:18:52.945Z,87.98
2019-06-15T22:21:18.802Z,88.20
2019-06-15T22:23:47.058Z,88.16
2019-06-15T22:26:12.550Z,88.01
2019-06-15T22:28:38.437Z,88.23
2019-06-15T22:31:06.568Z,88.35
2019-06-15T22:33:32.060Z,88.12
2019-06-15T22:35:57.940Z,88.55
2019-06-15T22:38:23.823Z,87.89
2019-06-15T22:40:49.721Z,88.23
2019-06-15T22:43:16.697Z,87.73
2019-06-15T22:45:42.867Z,87.71
2019-06-15T22:48:08.727Z,87.43
2019-06-15T22:50:36.105Z,87.38
2019-06-15T22:53:04.066Z,87.19
2019-06-15T22:55:29.853Z,87.12
2019-06-15T22:57:56.678Z,86.71
2019-06-15T23:00:22.609Z,86.62
2019-06-15T23:02:48.474Z,86.85
2019-06-15T23:05:16.940Z,86.71
2019-06-15T23:07:42.212Z,86.62
2019-06-15T23:10:08.339Z,87.13
2019-06-15T23:12:36.955Z,87.26
2019-06-15T23:15:06.868Z,87.41
2019-06-15T23:17:32.332Z,87.11
2019-06-15T23:19:58.215Z,87.78
2019-06-15T23:22:24.073Z,87.01
2019-06-15T23:24:49.952Z,86.90
2019-06-15T23:27:16.562Z,86.88
2019-06-15T23:29:42.465Z,86.74
2019-06-15T23:32:08.353Z,86.95
2019-06-15T23:34:34.224Z,87.01
2019-06-15T23:37:02.011Z,86.79
2019-06-15T23:39:27.870Z,86.80
2019-06-15T23:41:56.235Z,87.03
2019-06-15T23:44:21.525Z,87.19
2019-06-15T23:46:47.394Z,86.91
2019-06-15T23:49:13.285Z,87.15
2019-06-15T23:51:39.152Z,87.18
2019-06-15T23:54:05.014Z,87.50
2019-06-15T23:56:30.901Z,87.52
2019-06-15T23:58:56.770Z,87.82
